Flight Track Log - Related Links

Times and Time Zones

All times are in EDT time to prevent confusion due to time zone crossing. See the UAL258 flight status page for this flight to view local times or setup timezone preferences in your user account.

Time Position Orientation Groundspeed Altitude Reporting Facility
EDT Latitude Longitude Course Direction KTS MPH feet Rate Location/Type
Fri 02:19:23 PM 36.0767 -115.1706 270° West 176 203 3,200  Level Los Angeles Center
Fri 02:20:05 PM 36.0753 -115.2136 268° West 185 213 4,100 1,689 Climbing Los Angeles Center
Fri 02:21:00 PM 35.9113 -115.3826 207° Southwest  Level FlightAware Approximate
Fri 02:21:06 PM 36.0439 -115.2692 235° Southwest 240 276 6,100  Level Los Angeles Center
Fri 02:22:00 PM 35.8834 -115.4930 270° West  Level FlightAware Approximate
Fri 02:22:20 PM 35.9594 -115.3100 201° Southwest 257 296 7,000  Level Los Angeles Center
Fri 02:23:00 PM 35.8833 -115.6245 270° West  Level FlightAware Approximate
Fri 02:23:22 PM 35.9072 -115.3781 227° Southwest 265 305 9,000  Level Los Angeles Center
Fri 02:24:00 PM 35.8834 -115.7561 270° West  Level FlightAware Approximate
Fri 02:24:25 PM 35.8861 -115.4633 253° West 274 315 9,900  Level Los Angeles Center
Fri 02:25:27 PM 35.8892 -115.5764 272° West 302 348 12,000 2,177 Climbing Los Angeles Center
Fri 02:26:29 PM 35.8908 -115.6944 271° West 342 394 14,400 2,323 Climbing Los Angeles Center
Fri 02:27:31 PM 35.8931 -115.8153 271° West 352 405 16,800 2,323 Climbing Los Angeles Center
Fri 02:28:33 PM 35.8958 -115.9506 271° West 368 423 19,200 2,129 Climbing Los Angeles Center
Fri 02:29:35 PM 35.9719 -116.0447 315° West 392 451 21,200 2,032 Climbing Los Angeles Center
Fri 02:30:37 PM 36.0658 -116.1331 323° Northwest 396 456 23,400 2,565 Climbing Los Angeles Center
Fri 02:31:39 PM 36.1489 -116.2158 321° Northwest 390 449 26,500 1,839 Climbing Los Angeles Center
Fri 02:32:41 PM 36.2314 -116.2836 326° Northwest 376 433 27,200 528 Climbing Los Angeles Center
Fri 02:33:44 PM 36.3181 -116.3678 322° Northwest 380 437 27,600 576 Climbing Los Angeles Center
Fri 02:34:46 PM 36.4144 -116.4564 324° Northwest 398 458 28,400 1,161 Climbing Los Angeles Center
Fri 02:35:48 PM 36.5144 -116.5525 322° Northwest 422 486 30,000 1,645 Climbing Los Angeles Center
Fri 02:36:50 PM 36.6322 -116.6664 322° Northwest 437 503 31,800 968 Climbing Los Angeles Center
Fri 02:37:52 PM 36.7350 -116.7511 327° Northwest 441 507 32,000 97 Climbing Los Angeles Center
Fri 02:38:54 PM 36.8442 -116.8347 329° Northwest 457 526 32,000  Level Los Angeles Center
Fri 02:39:41 PM 36.9300 -116.9072 326° Northwest 461 531 32,000  Level Oakland Center
Fri 02:40:43 PM 37.0389 -116.9928 328° Northwest 461 531 32,000  Level Oakland Center
Fri 02:41:44 PM 37.1461 -117.0786 327° Northwest 458 527 32,000  Level Oakland Center
Fri 02:42:00 PM 37.1689 -117.0939 332° Northwest 460 529 32,000  Level Los Angeles Center
Fri 02:42:46 PM 37.2539 -117.1644 327° Northwest 457 526 32,000  Level Oakland Center
Fri 02:43:47 PM 37.3322 -117.2825 310° West 448 516 32,000  Level Oakland Center
Fri 02:44:49 PM 37.3867 -117.4203 296° West 442 509 32,000  Level Oakland Center
Fri 02:45:50 PM 37.4122 -117.5675 282° West 428 493 32,000  Level Oakland Center
Fri 02:46:52 PM 37.4250 -117.7169 276° West 429 494 32,000  Level Oakland Center
Fri 02:47:53 PM 37.4372 -117.8947 275° West 425 489 32,000  Level Oakland Center
Fri 02:48:55 PM 37.4483 -118.0433 275° West 426 490 32,000  Level Oakland Center
Fri 02:49:56 PM 37.4594 -118.1914 275° West 425 489 32,000  Level Oakland Center
Fri 02:50:58 PM 37.4706 -118.3381 275° West 421 484 32,000  Level Oakland Center
Fri 02:52:00 PM 37.4808 -118.4836 275° West 418 481 32,000  Level Oakland Center
Fri 02:53:01 PM 37.4894 -118.6200 275° West 396 456 32,000  Level Oakland Center
Fri 02:54:02 PM 37.4994 -118.7556 275° West 389 448 32,000  Level Oakland Center
Fri 02:55:04 PM 37.5086 -118.9089 274° West 391 450 32,000  Level Oakland Center
Fri 02:56:05 PM 37.5172 -119.0406 275° West 381 438 32,000 -49 Level Oakland Center
Fri 02:57:07 PM 37.5267 -119.1767 275° West 393 452 31,900 -293 Descending Oakland Center
Fri 02:58:08 PM 37.5381 -119.3161 276° West 400 460 31,400 -1,171 Descending Oakland Center
Fri 02:59:10 PM 37.5442 -119.4447 273° West 376 433 29,500 -1,659 Descending Oakland Center
Fri 03:00:11 PM 37.5511 -119.5800 274° West 355 409 28,000 -732 Descending Oakland Center
Fri 03:01:13 PM 37.5586 -119.7092 274° West 368 423 28,000  Level Oakland Center
Fri 03:02:14 PM 37.5606 -119.8411 271° West 373 429 28,000  Level Oakland Center
Fri 03:03:15 PM 37.5606 -119.9747 270° West 383 441 28,000  Level Oakland Center
Fri 03:04:17 PM 37.5606 -120.1000 270° West 361 415 28,000  Level Oakland Center
Fri 03:05:18 PM 37.5625 -120.2247 271° West 353 406 28,000 -492 Level Oakland Center
Fri 03:06:19 PM 37.5611 -120.3547 269° West 367 422 27,000 -1,062 Descending Oakland Center
Fri 03:07:11 PM 37.5667 -120.4833 273° West 362 417 26,000 -1,009 Descending Northern Cal TRACON
Fri 03:08:06 PM 37.5667 -120.6000 270° West 362 417 25,200 -939 Descending Northern Cal TRACON
Fri 03:09:06 PM 37.5667 -120.7167 270° West 356 410 24,200 -1,450 Descending Northern Cal TRACON
Fri 03:10:06 PM 37.5667 -120.8500 270° West 355 409 22,300 -1,800 Descending Northern Cal TRACON
Fri 03:11:06 PM 37.5500 -120.9667 260° West 348 400 20,600 -1,440 Descending Northern Cal TRACON
Fri 03:12:11 PM 37.5500 -121.0833 270° West 318 366 19,300 -1,400 Descending Northern Cal TRACON
Fri 03:13:06 PM 37.5500 -121.1833 270° West 310 357 17,800 -1,565 Descending Northern Cal TRACON
Fri 03:14:06 PM 37.5500 -121.2833 270° West 312 359 16,300 -1,600 Descending Northern Cal TRACON
Fri 03:15:06 PM 37.5500 -121.4000 270° West 291 335 14,600 -2,250 Descending Northern Cal TRACON
Fri 03:16:06 PM 37.5500 -121.5000 270° West 293 337 11,800 -1,800 Descending Northern Cal TRACON
Fri 03:17:06 PM 37.5500 -121.6000 270° West 285 328 11,000 -550 Descending Northern Cal TRACON
Fri 03:18:06 PM 37.5333 -121.6833 256° West 287 330 10,700 -850 Descending Northern Cal TRACON
Fri 03:19:06 PM 37.5000 -121.7833 247° West 279 321 9,300 -1,190 Descending Northern Cal TRACON
Fri 03:20:12 PM 37.4833 -121.8667 256° West 239 275 8,200 -762 Descending Northern Cal TRACON
Fri 03:21:12 PM 37.5000 -121.9333 288° West 184 212 7,700 -895 Descending Northern Cal TRACON
Fri 03:22:06 PM 37.5000 -121.9833 270° West 157 181 6,500 -1,263 Descending Northern Cal TRACON
Fri 03:23:06 PM 37.5167 -122.0333 293° West 155 178 5,300 -1,100 Descending Northern Cal TRACON
Fri 03:24:06 PM 37.5333 -122.0833 293° West 142 163 4,300 -1,100 Descending Northern Cal TRACON
Fri 03:25:06 PM 37.5500 -122.1333 293° West 147 169 3,100 -1,069 Descending Northern Cal TRACON
Fri 03:25:47 PM 37.5556 -122.1625 284° West 145 167 2,500 -816 Descending Oakland Center
Fri 03:26:49 PM 37.5697 -122.2089 291° West 143 165 1,700 -774 Descending Oakland Center

Login

Don't have an account? Register now (free) for customized features, flight alerts, and more!